• Join FlightAware (Why Join?)
  • Login
  • US Flag 
08:58PM EDT


 

Airport Tracker/Info


-or-


 

Live Flight TrackerFlight Track Log ✈ UCA4841 ✈ 17-Jul-2014 ✈ KROC - KIAD

Flight Track Log - Related Links

Times and Time Zones

All times are in EDT time to prevent confusion due to time zone crossing. See the UCA4841 flight status page for this flight to view local times or setup timezone preferences in your user account.

Time Position Orientation Groundspeed Altitude Reporting Facility
EDT Latitude Longitude Course Direction KTS MPH feet Rate Location/Type
10:30AM 43.1042 -77.6897 197° South 133 153 1,000  Level Cleveland Center
10:31AM 43.0750 -77.7022 197° South 152 175 2,200 1,380 Climbing Cleveland Center
10:31AM 43.0542 -77.6664 129° Southeast 181 208 3,100 1,320 Climbing Cleveland Center
10:32AM 43.0442 -77.6506 131° Southeast 183 211 3,600 1,620 Climbing Cleveland Center
10:32AM 43.0233 -77.6119 126° Southeast 181 208 4,800 1,500 Climbing Cleveland Center
10:34AM 42.9939 -77.5578 127° Southeast 181 208 6,400 1,500 Climbing Cleveland Center
10:35AM 42.9531 -77.5175 144° Southeast 184 212 7,900 1,200 Climbing Cleveland Center
10:36AM 42.9033 -77.4917 159° South 189 217 9,000 1,260 Climbing Cleveland Center
10:37AM 42.8375 -77.4600 161° South 205 236 10,600 1,320 Climbing Cleveland Center
10:38AM 42.7825 -77.4342 161° South 208 239 11,800 1,140 Climbing Cleveland Center
10:39AM 42.7269 -77.4078 161° South 208 239 13,000 1,080 Climbing Cleveland Center
10:40AM 42.6708 -77.3814 161° South 209 241 14,100 960 Climbing Cleveland Center
10:41AM 42.6142 -77.3564 162° South 211 243 15,000 420 Climbing Cleveland Center
10:42AM 42.5511 -77.3275 161° South 238 274 15,000  Level Cleveland Center
10:43AM 42.4814 -77.2944 161° South 261 300 15,000  Level Cleveland Center
10:44AM 42.3961 -77.2536 161° South 268 308 15,000  Level Cleveland Center
10:45AM 42.3247 -77.2208 161° South 269 310 15,000  Level Cleveland Center
10:46AM 42.2531 -77.1878 161° South 271 312 15,000  Level Cleveland Center
10:47AM 42.1828 -77.1556 161° South 268 308 15,000  Level Cleveland Center
10:48AM 42.1108 -77.1247 162° South 271 312 15,000  Level Cleveland Center
10:49AM 42.0400 -77.0903 160° South 271 312 15,000  Level Cleveland Center
10:50AM 41.9539 -77.0514 161° South 271 312 15,000  Level Cleveland Center
10:51AM 41.8825 -77.0197 162° South 271 312 15,000  Level Cleveland Center
10:52AM 41.8119 -76.9864 161° South 271 312 15,000  Level Cleveland Center
10:53AM 41.7411 -76.9556 162° South 271 312 15,000  Level Cleveland Center
10:54AM 41.6697 -76.9219 161° South 271 312 15,000  Level Cleveland Center
10:55AM 41.5972 -76.9239 181° South 268 308 15,000  Level Cleveland Center
10:57AM 41.4858 -76.9439 188° South 272 313 15,000  Level New York Center
10:58AM 41.4122 -76.9592 189° South 272 313 15,000  Level New York Center
10:59AM 41.3431 -76.9694 186° South 272 313 15,000  Level New York Center
11:00AM 41.2758 -76.9769 185° South 272 313 15,000  Level New York Center
11:01AM 41.2044 -76.9897 188° South 272 313 15,000  Level New York Center
11:02AM 41.1350 -77.0028 188° South 267 307 15,000  Level New York Center
11:03AM 41.0614 -77.0125 186° South 267 307 15,000  Level New York Center
11:04AM 40.9919 -77.0253 188° South 262 302 15,000  Level New York Center
11:05AM 40.9206 -77.0353 186° South 257 296 15,000  Level New York Center
11:06AM 40.8514 -77.0453 186° South 257 296 15,000  Level New York Center
11:07AM 40.7797 -77.0581 188° South 257 296 15,000  Level New York Center
11:08AM 40.7106 -77.0681 186° South 257 296 15,000  Level New York Center
11:09AM 40.6392 -77.0781 186° South 257 296 15,000  Level New York Center
11:10AM 40.5633 -77.0900 187° South 257 296 15,000  Level New York Center
11:11AM 40.4983 -77.1006 187° South 257 296 15,000 -480 Level New York Center
11:13AM 40.3167 -77.1333 188° South 270 311 13,500 -780 Descending Potomac TRACON
11:14AM 40.2333 -77.1333 180° South 276 318 12,400 -1,200 Descending Potomac TRACON
11:15AM 40.1667 -77.1667 201° Southwest 275 316 11,300 -1,140 Descending Potomac TRACON
11:16AM 40.0833 -77.1833 189° South 275 316 10,200 -1,080 Descending Potomac TRACON
11:17AM 40.0167 -77.2167 201° Southwest 270 311 9,200 -660 Descending Potomac TRACON
11:18AM 39.9333 -77.2333 189° South 264 304 8,900 -240 Descending Potomac TRACON
11:19AM 39.8667 -77.2667 201° Southwest 255 293 8,800 -480 Descending Potomac TRACON
11:20AM 39.8000 -77.2833 191° South 269 310 8,000 -480 Descending Potomac TRACON
11:21AM 39.7333 -77.3000 191° South 259 298 7,900  Descending Potomac TRACON
11:22AM 39.6667 -77.3167 191° South 256 295 8,000  Climbing Potomac TRACON
11:23AM 39.6000 -77.3333 191° South 260 299 8,000 -360 Level Potomac TRACON
11:24AM 39.5333 -77.3500 191° South 260 299 7,300 -600 Descending Potomac TRACON
11:25AM 39.4500 -77.3667 189° South 265 305 6,900 -360 Descending Potomac TRACON
11:26AM 39.3833 -77.3667 180° South 260 299 6,600 -840 Descending Potomac TRACON
11:27AM 39.3167 -77.3667 180° South 262 302 5,300 -960 Descending Potomac TRACON
11:28AM 39.2333 -77.3667 180° South 248 285 4,700 -720 Descending Potomac TRACON
11:29AM 39.1833 -77.3667 180° South 218 251 3,900 -360 Descending Potomac TRACON
11:30AM 39.1167 -77.3500 169° South 238 274 4,000  Climbing Potomac TRACON
11:31AM 39.0500 -77.3500 180° South 246 283 3,900 -60 Descending Potomac TRACON
11:32AM 38.9667 -77.3500 180° South 253 291 3,900 -60 Level Potomac TRACON
11:33AM 38.9000 -77.3500 180° South 253 291 3,800 -600 Descending Potomac TRACON
11:34AM 38.8500 -77.3667 195° South 210 242 2,700 -900 Descending Potomac TRACON
11:35AM 38.8000 -77.3833 195° South 211 243 2,000 -360 Descending Potomac TRACON
11:36AM 38.8333 -77.4333 311° West 174 200 2,000 -420 Level Potomac TRACON
11:37AM 38.8833 -77.4333 360° North 142 163 1,200 -780 Descending Potomac TRACON
11:38AM 38.9167 -77.4333 360° North 124 143 500 -720 Descending Potomac TRACON